createdAt,value
2023-04-14T00:01:18.804Z,8.25
2023-04-14T00:04:09.103Z,8.23
2023-04-14T00:06:58.641Z,8.26
2023-04-14T00:09:48.088Z,8.27
2023-04-14T00:12:36.750Z,8.28
2023-04-14T00:15:25.873Z,8.25
2023-04-14T00:18:15.806Z,8.30
2023-04-14T00:21:05.123Z,8.29
2023-04-14T00:23:53.921Z,8.28
2023-04-14T00:26:43.389Z,8.27
2023-04-14T00:29:32.008Z,8.24
2023-04-14T00:32:21.794Z,8.23
2023-04-14T00:35:11.938Z,8.21
2023-04-14T00:38:00.626Z,8.20
2023-04-14T00:40:51.649Z,8.20
2023-04-14T00:43:40.786Z,8.22
2023-04-14T00:46:29.880Z,8.16
2023-04-14T00:49:20.049Z,8.12
2023-04-14T00:52:10.415Z,8.16
2023-04-14T00:55:01.297Z,8.16
2023-04-14T00:57:51.090Z,8.17
2023-04-14T01:00:40.882Z,8.14
2023-04-14T01:03:31.393Z,8.13
2023-04-14T01:06:21.337Z,8.15
2023-04-14T01:09:12.141Z,8.09
2023-04-14T01:12:07.676Z,8.11
2023-04-14T01:15:03.364Z,8.13
2023-04-14T01:18:01.864Z,8.16
2023-04-14T01:20:57.586Z,8.14
2023-04-14T01:24:04.677Z,8.08
2023-04-14T01:27:04.717Z,8.14
2023-04-14T01:30:11.640Z,8.13
2023-04-14T01:33:05.905Z,8.12
2023-04-14T01:35:57.969Z,8.10
2023-04-14T01:38:51.078Z,8.11
2023-04-14T01:41:45.108Z,8.12
2023-04-14T01:44:35.549Z,8.04
2023-04-14T01:47:28.225Z,8.10
2023-04-14T01:50:21.072Z,8.08
2023-04-14T01:53:12.644Z,8.08
2023-04-14T01:56:05.044Z,8.08
2023-04-14T01:58:56.714Z,8.08
2023-04-14T02:01:47.854Z,8.08
2023-04-14T02:04:39.125Z,8.11
2023-04-14T02:07:32.412Z,8.10
2023-04-14T02:10:22.529Z,8.13
2023-04-14T02:13:14.308Z,8.12
2023-04-14T02:16:04.061Z,8.14
2023-04-14T02:18:53.253Z,8.12
2023-04-14T02:21:43.435Z,8.14
2023-04-14T02:24:34.205Z,8.14
2023-04-14T02:27:32.295Z,8.10
2023-04-14T02:30:25.837Z,8.00
2023-04-14T02:33:17.698Z,8.01
2023-04-14T02:36:16.519Z,8.03
2023-04-14T02:39:18.053Z,8.01
2023-04-14T02:42:14.190Z,8.03
2023-04-14T02:45:07.338Z,8.00
2023-04-14T02:48:00.598Z,7.95
2023-04-14T02:50:55.107Z,7.91
2023-04-14T02:53:47.779Z,7.89
2023-04-14T02:56:44.893Z,7.90
2023-04-14T02:59:37.496Z,7.87
2023-04-14T03:02:30.560Z,7.87
2023-04-14T03:05:25.550Z,7.87
2023-04-14T03:08:25.999Z,7.75
2023-04-14T03:11:15.458Z,7.74
2023-04-14T03:14:08.344Z,7.71
2023-04-14T03:17:00.915Z,7.74
2023-04-14T03:19:51.157Z,7.69
2023-04-14T03:22:42.282Z,7.70
2023-04-14T03:25:38.392Z,7.72
2023-04-14T03:28:33.666Z,7.74
2023-04-14T03:31:32.786Z,7.73
2023-04-14T03:34:25.339Z,7.70
2023-04-14T03:37:19.494Z,7.66
2023-04-14T03:40:11.110Z,7.71
2023-04-14T03:43:03.965Z,7.65
2023-04-14T03:45:54.089Z,7.64
2023-04-14T03:48:46.104Z,7.62
2023-04-14T03:51:39.992Z,7.61
2023-04-14T03:54:32.341Z,7.62
2023-04-14T03:57:23.392Z,7.54
2023-04-14T04:00:16.093Z,7.61
2023-04-14T04:03:07.961Z,7.56
2023-04-14T04:05:57.706Z,7.57
2023-04-14T04:08:49.393Z,7.57
2023-04-14T04:11:40.276Z,7.54
2023-04-14T04:14:30.958Z,7.49
2023-04-14T04:17:23.999Z,7.56
2023-04-14T04:20:16.331Z,7.56
2023-04-14T04:23:09.878Z,7.55
2023-04-14T04:26:00.664Z,7.54
2023-04-14T04:28:58.509Z,7.54
2023-04-14T04:31:48.305Z,7.52
2023-04-14T04:34:37.811Z,7.59
2023-04-14T04:37:28.872Z,7.62
2023-04-14T04:40:18.993Z,7.62
2023-04-14T04:43:11.740Z,7.63
2023-04-14T04:46:20.466Z,7.65
2023-04-14T04:49:09.138Z,7.64
2023-04-14T04:51:59.696Z,7.62
2023-04-14T04:54:52.425Z,7.60
2023-04-14T04:57:41.538Z,7.61
2023-04-14T05:00:31.446Z,7.59
2023-04-14T05:03:20.488Z,7.61
2023-04-14T05:06:09.308Z,7.60
2023-04-14T05:08:58.762Z,7.59
2023-04-14T05:11:47.855Z,7.59
2023-04-14T05:14:36.950Z,7.58
2023-04-14T05:17:27.151Z,7.59
2023-04-14T05:20:16.387Z,7.57
2023-04-14T05:23:05.284Z,7.61
2023-04-14T05:26:07.242Z,7.62
2023-04-14T05:29:06.725Z,7.64
2023-04-14T05:31:55.393Z,7.64
2023-04-14T05:34:46.798Z,7.63
2023-04-14T05:37:36.398Z,7.68
2023-04-14T05:40:25.664Z,7.71
2023-04-14T05:43:14.262Z,7.70
2023-04-14T05:46:03.309Z,7.70
2023-04-14T05:48:52.362Z,7.78
2023-04-14T05:51:42.715Z,7.76
2023-04-14T05:54:31.279Z,7.79
2023-04-14T05:57:20.166Z,7.78
2023-04-14T06:00:10.584Z,7.78
2023-04-14T06:03:03.561Z,7.76
2023-04-14T06:05:53.129Z,7.93
2023-04-14T06:08:43.886Z,8.00
2023-04-14T06:11:32.763Z,7.95
2023-04-14T06:14:21.800Z,7.95
2023-04-14T06:17:11.611Z,7.96
2023-04-14T06:20:01.706Z,7.95
2023-04-14T06:22:50.497Z,7.97
2023-04-14T06:25:41.100Z,7.89
2023-04-14T06:28:29.667Z,7.90
2023-04-14T06:31:19.067Z,7.94
2023-04-14T06:34:08.158Z,7.97
2023-04-14T06:36:59.305Z,7.91
2023-04-14T06:39:48.262Z,7.83
2023-04-14T06:42:38.168Z,7.81
2023-04-14T06:45:27.475Z,7.82
2023-04-14T06:48:16.552Z,7.87
2023-04-14T06:51:05.343Z,7.81
2023-04-14T06:53:53.893Z,7.88
2023-04-14T06:56:43.409Z,7.90
2023-04-14T06:59:33.359Z,7.90
2023-04-14T07:02:22.373Z,7.94
2023-04-14T07:05:11.210Z,7.97
2023-04-14T07:08:00.243Z,7.94
2023-04-14T07:10:48.952Z,7.91
2023-04-14T07:13:38.958Z,7.85
2023-04-14T07:16:28.941Z,7.92
2023-04-14T07:19:18.296Z,7.92
2023-04-14T07:22:08.121Z,7.96
2023-04-14T07:24:57.610Z,7.96
2023-04-14T07:27:59.907Z,7.94
2023-04-14T07:30:53.175Z,7.95
2023-04-14T07:33:43.097Z,7.96
2023-04-14T07:36:33.346Z,7.95
2023-04-14T07:39:23.854Z,7.97
2023-04-14T07:42:13.017Z,7.94
2023-04-14T07:45:01.553Z,7.97
2023-04-14T07:47:52.726Z,7.96
2023-04-14T07:50:42.791Z,7.99
2023-04-14T07:53:31.992Z,7.98
2023-04-14T07:56:20.681Z,8.02
2023-04-14T07:59:10.363Z,7.97
2023-04-14T08:01:59.571Z,8.04
2023-04-14T08:04:49.219Z,8.07
2023-04-14T08:07:39.668Z,8.14
2023-04-14T08:10:30.073Z,8.16
2023-04-14T08:13:18.603Z,8.20
2023-04-14T08:16:09.309Z,8.17
2023-04-14T08:18:58.259Z,8.15
2023-04-14T08:21:47.796Z,8.14
2023-04-14T08:24:38.044Z,8.16
2023-04-14T08:27:28.292Z,8.19
2023-04-14T08:30:17.136Z,8.12
2023-04-14T08:33:06.311Z,8.13
2023-04-14T08:35:59.153Z,8.13
2023-04-14T08:38:48.947Z,8.14
2023-04-14T08:41:40.811Z,8.13
2023-04-14T08:44:30.157Z,8.09
2023-04-14T08:47:20.741Z,8.17
2023-04-14T08:50:16.974Z,8.20
2023-04-14T08:53:09.519Z,8.21
2023-04-14T08:56:02.561Z,8.22
2023-04-14T08:58:54.526Z,8.25
2023-04-14T09:01:43.182Z,8.23
2023-04-14T09:04:33.368Z,8.27
2023-04-14T09:07:23.493Z,8.29
2023-04-14T09:10:13.240Z,8.25
2023-04-14T09:13:02.228Z,8.25
2023-04-14T09:15:53.464Z,8.34
2023-04-14T09:18:42.267Z,8.34
2023-04-14T09:21:52.414Z,8.37
2023-04-14T09:24:41.567Z,8.35
2023-04-14T09:27:31.059Z,8.32
2023-04-14T09:30:20.674Z,8.48
2023-04-14T09:36:18.668Z,8.65
2023-04-14T09:39:18.242Z,8.80
2023-04-14T09:42:06.864Z,8.79
2023-04-14T09:44:56.871Z,8.80
2023-04-14T09:47:47.938Z,8.82
2023-04-14T09:50:57.557Z,8.95
2023-04-14T09:53:48.493Z,9.00
2023-04-14T09:56:37.270Z,9.23
2023-04-14T09:59:34.591Z,9.18
2023-04-14T10:02:23.438Z,9.32
2023-04-14T10:05:13.251Z,9.61
2023-04-14T10:08:05.304Z,9.60
2023-04-14T10:10:54.356Z,9.57
2023-04-14T10:13:43.270Z,9.61
2023-04-14T10:16:33.317Z,9.71
2023-04-14T10:19:22.263Z,9.80
2023-04-14T10:22:12.181Z,9.85
2023-04-14T10:25:02.441Z,9.78
2023-04-14T10:27:52.185Z,9.76
2023-04-14T10:30:43.231Z,9.80
2023-04-14T10:33:32.984Z,9.85
2023-04-14T10:36:25.843Z,9.85
2023-04-14T10:39:16.009Z,9.73
2023-04-14T10:42:06.022Z,9.70
2023-04-14T10:45:07.211Z,9.56
2023-04-14T10:47:57.051Z,9.52
2023-04-14T10:50:49.379Z,9.43
2023-04-14T10:53:39.895Z,9.50
2023-04-14T10:56:30.122Z,9.48
2023-04-14T10:59:21.652Z,9.45
2023-04-14T11:02:28.641Z,9.48
2023-04-14T11:05:17.450Z,9.57
2023-04-14T11:08:14.713Z,9.59
2023-04-14T11:11:06.993Z,9.62
2023-04-14T11:14:13.834Z,9.56
2023-04-14T11:17:05.690Z,9.50
2023-04-14T11:19:55.726Z,9.57
2023-04-14T11:22:45.984Z,9.57
2023-04-14T11:32:58.713Z,9.54
2023-04-14T11:35:50.503Z,9.46
2023-04-14T11:38:40.907Z,9.43
2023-04-14T11:41:30.764Z,9.33
2023-04-14T11:44:19.949Z,9.47
2023-04-14T11:47:09.012Z,9.63
2023-04-14T11:49:57.865Z,9.76
2023-04-14T11:52:48.629Z,9.77
2023-04-14T11:55:37.638Z,9.80
2023-04-14T11:58:29.982Z,9.81
2023-04-14T12:01:24.136Z,9.86
2023-04-14T12:04:13.679Z,9.95
2023-04-14T12:07:03.336Z,10.09
2023-04-14T12:09:53.261Z,10.00
2023-04-14T12:12:42.792Z,10.11
2023-04-14T12:15:33.093Z,10.11
2023-04-14T12:18:23.908Z,10.24
2023-04-14T12:21:18.020Z,10.23
2023-04-14T12:24:07.269Z,10.33
2023-04-14T12:26:58.756Z,10.39
2023-04-14T12:29:49.595Z,10.52
2023-04-14T12:32:39.994Z,10.60
2023-04-14T12:35:35.935Z,10.76
2023-04-14T12:38:28.978Z,10.89
2023-04-14T12:41:23.320Z,10.96
2023-04-14T12:44:17.883Z,10.99
2023-04-14T12:47:07.090Z,10.99
2023-04-14T12:49:56.674Z,11.04
2023-04-14T12:52:46.407Z,11.04
2023-04-14T12:55:34.954Z,11.11
2023-04-14T12:58:24.475Z,11.13
2023-04-14T13:01:15.352Z,11.25
2023-04-14T13:04:05.756Z,11.39
2023-04-14T13:06:54.436Z,11.38
2023-04-14T13:09:44.021Z,11.44
2023-04-14T13:12:32.611Z,11.46
2023-04-14T13:15:31.111Z,11.43
2023-04-14T13:18:32.028Z,11.39
2023-04-14T13:21:21.461Z,11.42
2023-04-14T13:24:10.037Z,11.42
2023-04-14T13:26:59.032Z,11.37
2023-04-14T13:29:47.650Z,11.37
2023-04-14T13:32:37.088Z,11.48
2023-04-14T13:35:27.049Z,11.51
2023-04-14T13:38:16.085Z,11.56
2023-04-14T13:41:04.727Z,11.53
2023-04-14T13:43:53.911Z,11.56
2023-04-14T13:46:44.522Z,11.54
2023-04-14T13:49:33.853Z,11.60
2023-04-14T13:52:23.911Z,11.58
2023-04-14T13:55:13.135Z,11.60
2023-04-14T13:58:01.740Z,11.65
2023-04-14T14:00:51.871Z,11.60
2023-04-14T14:03:41.526Z,11.71
2023-04-14T14:06:31.773Z,11.69
2023-04-14T14:12:49.162Z,11.73
2023-04-14T14:15:37.982Z,11.65
2023-04-14T14:18:27.085Z,11.72
2023-04-14T14:21:15.813Z,11.71
2023-04-14T14:24:05.206Z,11.85
2023-04-14T14:26:57.163Z,11.93
2023-04-14T14:29:46.434Z,11.98
2023-04-14T14:32:35.293Z,12.06
2023-04-14T14:35:25.059Z,12.08
2023-04-14T14:38:13.660Z,12.07
2023-04-14T14:41:03.048Z,12.15
2023-04-14T14:43:53.564Z,12.19
2023-04-14T14:46:43.282Z,12.21
2023-04-14T15:12:37.545Z,11.97
2023-04-14T15:15:26.129Z,11.91
2023-04-14T15:18:14.722Z,11.89
2023-04-14T15:21:03.988Z,11.85
2023-04-14T15:23:52.623Z,11.84
2023-04-14T15:26:41.682Z,11.67
2023-04-14T15:29:31.998Z,11.92
2023-04-14T15:32:25.070Z,11.97
2023-04-14T16:01:28.031Z,11.07
2023-04-14T16:04:16.788Z,10.89
2023-04-14T16:07:06.440Z,10.70
2023-04-14T16:09:56.537Z,10.46
2023-04-14T16:12:45.554Z,10.40
2023-04-14T16:15:34.886Z,10.36
2023-04-14T16:18:24.315Z,10.32
2023-04-14T16:21:13.564Z,10.18
2023-04-14T16:24:02.849Z,10.13
2023-04-14T16:26:53.092Z,10.12
2023-04-14T16:29:42.598Z,10.18
2023-04-14T16:32:31.207Z,10.21
2023-04-14T16:35:20.506Z,10.25
2023-04-14T16:38:09.143Z,10.30
2023-04-14T16:40:59.267Z,10.30
2023-04-14T16:43:49.169Z,10.35
2023-04-14T16:46:38.742Z,10.31
2023-04-14T16:49:27.485Z,10.37
2023-04-14T16:52:16.101Z,10.41
2023-04-14T16:55:05.526Z,10.37
2023-04-14T16:57:54.066Z,10.36
2023-04-14T17:00:44.423Z,10.37
2023-04-14T17:03:33.723Z,10.35
2023-04-14T17:06:22.489Z,10.39
2023-04-14T17:09:12.049Z,10.39
2023-04-14T17:12:01.503Z,10.37
2023-04-14T17:14:51.457Z,10.33
2023-04-14T17:17:42.891Z,10.28
2023-04-14T17:20:32.412Z,10.24
2023-04-14T17:23:21.643Z,10.16
2023-04-14T17:26:11.318Z,10.20
2023-04-14T17:29:00.004Z,10.34
2023-04-14T17:31:48.705Z,10.34
2023-04-14T17:34:39.470Z,10.32
2023-04-14T17:37:29.327Z,10.33
2023-04-14T17:40:18.916Z,10.32
2023-04-14T17:43:07.863Z,10.26
2023-04-14T17:45:57.243Z,10.28
2023-04-14T17:48:46.297Z,10.28
2023-04-14T17:51:36.999Z,10.26
2023-04-14T17:54:26.349Z,10.15
2023-04-14T17:57:17.093Z,10.23
2023-04-14T18:00:10.602Z,10.25
2023-04-14T18:03:02.930Z,10.22
2023-04-14T18:05:51.518Z,10.23
2023-04-14T18:08:42.774Z,10.19
2023-04-14T18:11:31.468Z,10.16
2023-04-14T18:14:21.494Z,10.15
2023-04-14T18:17:10.646Z,10.12
2023-04-14T18:20:00.908Z,10.07
2023-04-14T18:22:49.485Z,10.09
2023-04-14T18:28:32.387Z,10.07
2023-04-14T18:31:21.369Z,10.06
2023-04-14T18:34:12.103Z,10.08
2023-04-14T18:37:00.789Z,10.04
2023-04-14T18:39:49.459Z,10.01
2023-04-14T18:42:40.263Z,9.99
2023-04-14T18:45:29.295Z,9.98
2023-04-14T18:48:18.523Z,9.94
2023-04-14T18:51:10.084Z,9.87
2023-04-14T18:53:59.337Z,9.82
2023-04-14T18:56:48.676Z,9.80
2023-04-14T18:59:38.601Z,9.77
2023-04-14T19:02:28.464Z,9.72
2023-04-14T19:05:17.424Z,9.66
2023-04-14T19:08:07.776Z,9.60
2023-04-14T19:10:56.889Z,9.57
2023-04-14T19:13:45.963Z,9.56
2023-04-14T19:16:36.342Z,9.57
2023-04-14T19:19:26.464Z,9.49
2023-04-14T19:22:16.275Z,9.50
2023-04-14T19:25:05.537Z,9.39
2023-04-14T19:27:54.120Z,9.46
2023-04-14T19:30:44.620Z,9.41
2023-04-14T19:33:34.576Z,9.42
2023-04-14T19:36:24.175Z,9.36
2023-04-14T19:39:12.807Z,9.39
2023-04-14T19:42:02.381Z,9.36
2023-04-14T19:44:51.438Z,9.35
2023-04-14T19:47:40.627Z,9.34
2023-04-14T19:50:30.900Z,9.34
2023-04-14T19:53:21.661Z,9.38
2023-04-14T19:56:10.636Z,9.40
2023-04-14T19:58:59.495Z,9.42
2023-04-14T20:01:50.413Z,9.43
2023-04-14T20:04:39.586Z,9.42
2023-04-14T20:07:30.290Z,9.40
2023-04-14T20:10:19.454Z,9.36
2023-04-14T20:13:08.955Z,9.35
2023-04-14T20:15:57.613Z,9.35
2023-04-14T20:18:47.151Z,9.32
2023-04-14T20:21:36.587Z,9.30
2023-04-14T20:24:26.973Z,9.26
2023-04-14T20:27:15.989Z,9.24
2023-04-14T20:30:05.930Z,9.20
2023-04-14T20:32:54.537Z,9.24
2023-04-14T20:35:44.570Z,9.23
2023-04-14T20:38:33.692Z,9.21
2023-04-14T20:41:24.202Z,9.12
2023-04-14T20:44:13.056Z,9.05
2023-04-14T20:47:04.071Z,8.99
2023-04-14T20:49:53.091Z,8.94
2023-04-14T20:52:41.625Z,8.93
2023-04-14T20:55:30.314Z,8.96
2023-04-14T20:58:20.469Z,8.98
2023-04-14T21:01:09.902Z,8.96
2023-04-14T21:03:59.269Z,8.90
2023-04-14T21:06:48.328Z,8.75
2023-04-14T21:09:37.959Z,8.81
2023-04-14T21:12:26.628Z,8.77
2023-04-14T21:15:48.128Z,8.73
2023-04-14T21:18:36.980Z,8.71
2023-04-14T21:21:26.183Z,8.70
2023-04-14T21:24:15.177Z,8.70
2023-04-14T21:27:04.134Z,8.74
2023-04-14T21:29:52.717Z,8.74
2023-04-14T21:32:44.061Z,8.75
2023-04-14T21:35:33.168Z,8.71
2023-04-14T21:38:22.214Z,8.71
2023-04-14T21:41:10.841Z,8.69
2023-04-14T21:44:00.728Z,8.70
2023-04-14T21:46:49.330Z,8.67
2023-04-14T21:49:39.251Z,8.62
2023-04-14T21:52:28.226Z,8.59
2023-04-14T21:55:17.399Z,8.57
2023-04-14T21:58:05.959Z,8.55
2023-04-14T22:00:55.107Z,8.56
2023-04-14T22:03:44.708Z,8.53
2023-04-14T22:06:37.006Z,8.54
2023-04-14T22:09:25.569Z,8.54
2023-04-14T22:12:16.637Z,8.52
2023-04-14T22:15:06.515Z,8.51
2023-04-14T22:17:56.681Z,8.52
2023-04-14T22:20:46.000Z,8.51
2023-04-14T22:23:36.846Z,8.51
2023-04-14T22:26:25.410Z,8.50
2023-04-14T22:29:14.860Z,8.40
2023-04-14T22:32:04.366Z,8.53
2023-04-14T22:34:52.928Z,8.55
2023-04-14T22:37:42.351Z,8.56
2023-04-14T22:40:32.241Z,8.56
2023-04-14T22:43:21.714Z,8.55
2023-04-14T22:46:10.645Z,8.55
2023-04-14T22:49:01.633Z,8.57
2023-04-14T22:51:50.620Z,8.56
2023-04-14T22:54:40.811Z,8.54
2023-04-14T22:57:30.972Z,8.55
2023-04-14T23:00:21.743Z,8.54
2023-04-14T23:03:10.793Z,8.54
2023-04-14T23:06:03.520Z,8.54
2023-04-14T23:08:52.684Z,8.56
2023-04-14T23:11:42.812Z,8.57
2023-04-14T23:14:33.152Z,8.55
2023-04-14T23:17:22.494Z,8.56
2023-04-14T23:20:12.081Z,8.54
2023-04-14T23:23:00.703Z,8.55
2023-04-14T23:25:50.608Z,8.52
2023-04-14T23:28:39.452Z,8.54
2023-04-14T23:31:30.671Z,8.51
2023-04-14T23:34:19.277Z,8.49
2023-04-14T23:37:09.024Z,8.45
2023-04-14T23:39:57.561Z,8.43
2023-04-14T23:42:47.064Z,8.41
2023-04-14T23:45:37.742Z,8.37
2023-04-14T23:48:28.795Z,8.33
2023-04-14T23:51:21.070Z,8.33
2023-04-14T23:54:11.903Z,8.31
2023-04-14T23:57:00.470Z,8.27
2023-04-14T23:59:49.609Z,8.25
